Time;durP1;ratioP1;P1;durP2;ratioP2;P2;SDS_P1;SDS_P2;PMS_P1;PMS_P2;Temp;Humidity;BMP_temperature;BMP_pressure;BME280_temperature;BME280_humidity;BME280_pressure;Samples;Min_cycle;Max_cycle;Signal;HPM_P1;HPM_P2
2024/02/01 00:01:15;;;;;;;46.45;23.25;;;;;;;-1.14;50.21;96155.19;5066504;28;20451;-75
2024/02/01 00:03:41;;;;;;;41.97;22.90;;;;;;;-1.19;50.45;96155.41;5057699;28;20025;-75
2024/02/01 00:06:06;;;;;;;43.55;21.30;;;;;;;-1.21;50.25;96147.59;5058391;28;20178;-76
2024/02/01 00:08:32;;;;;;;42.58;21.52;;;;;;;-1.23;50.27;96143.69;5038544;28;20124;-74
2024/02/01 00:10:58;;;;;;;57.05;26.83;;;;;;;-1.29;50.90;96137.69;5032349;28;20079;-74
2024/02/01 00:13:23;;;;;;;57.75;26.50;;;;;;;-1.22;50.43;96139.84;5062935;28;20149;-76
2024/02/01 00:15:49;;;;;;;43.25;22.00;;;;;;;-1.23;50.34;96135.59;5063396;28;20035;-75
2024/02/01 00:18:14;;;;;;;38.38;21.15;;;;;;;-1.21;50.24;96142.22;5056254;28;20474;-75
2024/02/01 00:20:40;;;;;;;46.80;22.25;;;;;;;-1.25;50.62;96135.13;5067174;28;20024;-75
2024/02/01 00:23:05;;;;;;;47.85;23.08;;;;;;;-1.27;50.67;96137.34;5052083;28;20040;-74
2024/02/01 00:25:30;;;;;;;42.88;22.48;;;;;;;-1.24;50.63;96142.09;5046158;28;20033;-75
2024/02/01 00:27:56;;;;;;;45.30;22.27;;;;;;;-1.29;50.81;96145.00;5060253;28;20029;-75
2024/02/01 00:30:21;;;;;;;44.67;23.02;;;;;;;-1.27;50.44;96132.75;5064396;28;20574;-75
2024/02/01 00:32:47;;;;;;;35.50;20.23;;;;;;;-1.29;50.38;96134.22;5052012;28;20538;-75
2024/02/01 00:35:12;;;;;;;38.63;20.90;;;;;;;-1.28;50.16;96130.38;5049637;28;20032;-76
2024/02/01 00:37:38;;;;;;;41.10;21.45;;;;;;;-1.31;50.59;96133.75;5055734;28;20025;-75
2024/02/01 00:40:04;;;;;;;41.83;22.08;;;;;;;-1.36;50.64;96132.06;5046788;28;20533;-74
2024/02/01 00:42:29;;;;;;;35.55;19.73;;;;;;;-1.41;50.71;96132.25;5045195;28;20041;-74
2024/02/01 00:44:54;;;;;;;38.92;21.88;;;;;;;-1.36;50.99;96132.84;5028549;28;20086;-76
2024/02/01 00:47:20;;;;;;;40.72;20.88;;;;;;;-1.43;50.79;96129.09;5047836;28;20060;-74
2024/02/01 00:49:45;;;;;;;36.63;19.48;;;;;;;-1.46;50.87;96129.75;5056020;28;20049;-75
2024/02/01 00:52:11;;;;;;;37.85;19.10;;;;;;;-1.48;51.07;96130.09;5047368;28;20021;-75
2024/02/01 00:54:37;;;;;;;41.63;18.90;;;;;;;-1.55;51.41;96126.34;5058288;28;20021;-74
2024/02/01 00:57:03;;;;;;;35.08;19.33;;;;;;;-1.57;51.70;96136.66;5056390;28;20090;-75
2024/02/01 00:59:28;;;;;;;39.72;19.92;;;;;;;-1.53;51.33;96132.19;5048644;28;20029;-75
2024/02/01 01:01:54;;;;;;;36.60;19.55;;;;;;;-1.55;51.52;96129.03;5048579;28;20044;-74
2024/02/01 01:04:19;;;;;;;35.22;21.52;;;;;;;-1.69;51.65;96130.09;5054649;28;20449;-73
2024/02/01 01:06:44;;;;;;;41.22;19.48;;;;;;;-1.64;51.98;96127.19;5047652;28;20503;-75
2024/02/01 01:09:10;;;;;;;36.45;18.83;;;;;;;-1.70;51.81;96125.03;5051691;28;20040;-75
2024/02/01 01:11:37;;;;;;;39.20;20.05;;;;;;;-1.76;52.03;96120.97;5050750;28;20108;-74
2024/02/01 01:14:02;;;;;;;33.38;17.55;;;;;;;-1.78;52.27;96117.78;5057409;28;20110;-75
2024/02/01 01:16:28;;;;;;;29.58;17.33;;;;;;;-1.78;52.26;96115.88;5052014;28;20471;-74
2024/02/01 01:18:53;;;;;;;34.17;18.45;;;;;;;-1.72;51.70;96111.06;5064958;28;20032;-74
2024/02/01 01:21:19;;;;;;;32.95;16.08;;;;;;;-1.71;51.48;96116.16;5055263;28;20029;-75
2024/02/01 01:23:44;;;;;;;30.02;17.02;;;;;;;-1.77;51.68;96104.00;5045870;28;20385;-75
2024/02/01 01:26:09;;;;;;;29.05;16.48;;;;;;;-1.82;51.62;96104.19;5045443;28;20533;-74
2024/02/01 01:28:35;;;;;;;25.35;15.02;;;;;;;-1.80;51.41;96101.16;5045941;28;20428;-75
2024/02/01 01:31:00;;;;;;;27.23;15.60;;;;;;;-1.83;51.64;96093.75;5057111;28;20020;-74
2024/02/01 01:33:26;;;;;;;28.63;15.15;;;;;;;-1.83;51.39;96091.84;5059100;28;20029;-74
2024/02/01 01:35:51;;;;;;;27.15;14.73;;;;;;;-1.80;51.49;96093.06;5050736;28;20029;-76
2024/02/01 01:38:17;;;;;;;26.42;14.48;;;;;;;-1.82;51.38;96093.41;5056142;28;20025;-75
2024/02/01 01:40:42;;;;;;;26.80;15.82;;;;;;;-1.81;51.79;96100.38;5061734;28;20434;-75
2024/02/01 01:43:07;;;;;;;25.90;14.50;;;;;;;-1.84;52.03;96092.13;5062461;28;20036;-74
2024/02/01 01:45:33;;;;;;;32.30;16.48;;;;;;;-1.92;51.82;96088.41;5027869;28;20466;-74
2024/02/01 01:47:58;;;;;;;26.30;14.88;;;;;;;-1.91;52.01;96090.75;5045299;28;20033;-75
2024/02/01 01:50:24;;;;;;;28.02;15.35;;;;;;;-1.88;52.14;96092.03;5044513;28;20667;-75
2024/02/01 01:52:50;;;;;;;31.02;17.50;;;;;;;-1.94;52.84;96088.75;5045046;28;20040;-75
2024/02/01 01:55:16;;;;;;;34.58;17.10;;;;;;;-1.90;52.68;96089.63;5049386;28;20498;-75
2024/02/01 01:57:41;;;;;;;34.08;17.70;;;;;;;-1.97;52.79;96084.00;5068925;28;20032;-75
2024/02/01 02:00:08;;;;;;;38.55;18.33;;;;;;;-1.97;53.03;96084.00;5063947;28;20448;-75
2024/02/01 02:02:34;;;;;;;45.22;21.80;;;;;;;-1.94;52.74;96079.88;5042007;28;20033;-75
2024/02/01 02:05:00;;;;;;;50.58;24.45;;;;;;;-2.00;51.99;96078.50;5068979;28;20034;-74
2024/02/01 02:07:26;;;;;;;50.33;25.30;;;;;;;-1.98;52.23;96076.25;5051272;28;20510;-75
2024/02/01 02:09:51;;;;;;;60.17;26.85;;;;;;;-2.09;52.82;96083.13;5051620;28;20032;-74
2024/02/01 02:12:16;;;;;;;56.05;28.98;;;;;;;-2.20;53.07;96074.66;5062716;28;20028;-75
2024/02/01 02:14:42;;;;;;;54.47;26.08;;;;;;;-2.20;53.16;96074.66;5041327;28;20111;-76
2024/02/01 02:17:07;;;;;;;47.50;23.95;;;;;;;-2.18;53.64;96075.09;5068085;28;20063;-75
2024/02/01 02:19:33;;;;;;;45.75;24.25;;;;;;;-2.24;52.93;96073.72;5053850;28;20037;-74
2024/02/01 02:21:58;;;;;;;47.67;22.80;;;;;;;-2.18;52.55;96075.91;5048373;28;20040;-74
2024/02/01 02:24:25;;;;;;;38.72;21.40;;;;;;;-2.22;53.24;96083.06;5047774;28;20047;-74
2024/02/01 02:26:50;;;;;;;39.30;20.20;;;;;;;-2.26;53.12;96071.34;5048735;28;20119;-74
2024/02/01 02:29:16;;;;;;;39.33;20.70;;;;;;;-2.22;52.61;96074.19;5047736;28;20033;-74
2024/02/01 02:31:42;;;;;;;45.00;21.63;;;;;;;-2.23;52.83;96068.03;5064165;28;20085;-74
2024/02/01 02:34:07;;;;;;;42.10;20.63;;;;;;;-2.20;52.67;96074.66;5068928;28;20104;-75
2024/02/01 02:36:33;;;;;;;36.80;19.13;;;;;;;-2.22;52.55;96063.41;5069616;28;20024;-76
2024/02/01 02:39:00;;;;;;;43.47;21.20;;;;;;;-2.20;52.28;96069.25;5069226;28;20028;-74
2024/02/01 02:41:25;;;;;;;37.92;19.27;;;;;;;-2.16;52.50;96073.66;5067369;28;20029;-74
2024/02/01 02:43:50;;;;;;;30.30;17.42;;;;;;;-2.26;52.78;96074.03;5068085;28;20044;-74
2024/02/01 02:46:16;;;;;;;35.40;19.10;;;;;;;-2.30;52.90;96059.66;5068704;28;20033;-76
2024/02/01 02:48:41;;;;;;;42.47;20.98;;;;;;;-2.31;53.11;96062.66;5069409;28;20060;-74
2024/02/01 02:51:07;;;;;;;35.90;19.75;;;;;;;-2.34;53.28;96053.34;5050341;28;20119;-74
2024/02/01 02:53:33;;;;;;;37.33;20.42;;;;;;;-2.36;53.20;96044.00;5068025;28;20103;-75
2024/02/01 02:55:58;;;;;;;36.53;19.20;;;;;;;-2.37;53.22;96042.44;5069781;28;20033;-75
2024/02/01 02:58:24;;;;;;;38.75;19.90;;;;;;;-2.42;53.38;96046.88;5069064;28;20067;-75
2024/02/01 03:00:50;;;;;;;31.25;18.23;;;;;;;-2.43;53.48;96050.69;5067610;28;20067;-74
2024/02/01 03:03:16;;;;;;;39.30;18.85;;;;;;;-2.48;53.36;96042.81;5068559;28;20060;-75
2024/02/01 03:05:41;;;;;;;43.92;20.05;;;;;;;-2.47;53.41;96044.38;5052246;28;20032;-73
2024/02/01 03:08:09;;;;;;;35.25;18.63;;;;;;;-2.49;53.40;96053.91;5054249;28;20035;-75
2024/02/01 03:10:38;;;;;;;27.65;16.05;;;;;;;-2.52;53.04;96049.97;5048649;28;20047;-75
2024/02/01 03:13:10;;;;;;;24.55;14.35;;;;;;;-2.56;53.31;96046.34;5059372;28;20037;-74
2024/02/01 03:15:38;;;;;;;24.30;14.90;;;;;;;-2.60;53.58;96036.56;5048714;28;20036;-75
2024/02/01 03:18:05;;;;;;;23.88;14.43;;;;;;;-2.54;53.31;96040.63;5051413;28;20488;-75
2024/02/01 03:20:32;;;;;;;27.58;13.52;;;;;;;-2.50;53.38;96039.66;5058888;28;20021;-76
2024/02/01 03:22:57;;;;;;;29.13;15.13;;;;;;;-2.53;53.14;96037.59;5064128;28;20454;-74
2024/02/01 03:25:31;;;;;;;30.52;16.42;;;;;;;-2.49;53.30;96032.38;5064711;28;20108;-74
2024/02/01 03:28:01;;;;;;;26.00;15.27;;;;;;;-2.50;53.07;96031.59;5050596;28;20025;-75
2024/02/01 03:30:30;;;;;;;29.08;15.55;;;;;;;-2.53;53.22;96034.91;5048881;28;20203;-74
2024/02/01 03:32:57;;;;;;;28.08;14.18;;;;;;;-2.57;53.28;96039.38;5045655;28;20391;-74
2024/02/01 03:35:25;;;;;;;27.48;14.98;;;;;;;-2.63;53.72;96032.63;5049377;28;20036;-75
2024/02/01 03:37:51;;;;;;;25.70;15.02;;;;;;;-2.74;53.80;96024.13;5061596;28;20059;-74
2024/02/01 03:40:20;;;;;;;26.83;15.63;;;;;;;-2.68;53.30;96038.19;5058496;28;20107;-74
2024/02/01 03:42:48;;;;;;;28.55;14.90;;;;;;;-2.75;53.66;96019.84;5053250;28;20072;-76
2024/02/01 03:45:14;;;;;;;28.27;14.98;;;;;;;-2.72;53.62;96026.47;5064800;28;20028;-76
2024/02/01 03:47:40;;;;;;;25.92;15.38;;;;;;;-2.74;53.35;96026.03;5065138;28;20021;-74
2024/02/01 03:50:08;;;;;;;24.90;13.93;;;;;;;-2.73;53.43;96023.00;5043085;28;20029;-76
2024/02/01 03:52:34;;;;;;;30.67;15.10;;;;;;;-2.82;53.47;96018.78;5048424;28;20035;-73
2024/02/01 03:55:00;;;;;;;24.95;15.02;;;;;;;-2.81;53.36;96031.09;5048665;28;20049;-74
2024/02/01 03:57:26;;;;;;;21.00;13.65;;;;;;;-2.79;53.35;96024.31;5041912;28;20048;-74
2024/02/01 03:59:52;;;;;;;34.05;14.40;;;;;;;-2.75;53.39;96030.63;5062581;28;20140;-77
2024/02/01 04:02:18;;;;;;;22.63;13.97;;;;;;;-2.77;53.19;96027.44;5039868;28;20031;-73
2024/02/01 04:04:47;;;;;;;26.58;15.95;;;;;;;-2.75;53.07;96022.56;5065690;28;20040;-75
2024/02/01 04:07:16;;;;;;;29.05;15.55;;;;;;;-2.79;53.33;96023.53;5053550;28;20439;-74
2024/02/01 04:09:43;;;;;;;25.20;14.45;;;;;;;-2.87;53.70;96019.75;5031191;28;20400;-76
2024/02/01 04:12:08;;;;;;;22.50;13.48;;;;;;;-2.85;53.78;96022.91;5050917;28;20082;-75
2024/02/01 04:14:33;;;;;;;23.10;14.32;;;;;;;-2.87;53.97;96013.56;5053842;28;20408;-75
2024/02/01 04:16:59;;;;;;;24.98;15.98;;;;;;;-2.87;53.89;96025.13;5046150;28;20028;-74
2024/02/01 04:19:24;;;;;;;28.38;14.38;;;;;;;-2.92;53.71;96029.91;5065899;28;20118;-73
2024/02/01 04:21:50;;;;;;;26.75;14.85;;;;;;;-2.95;53.67;96026.75;5066885;28;20028;-76
2024/02/01 04:24:16;;;;;;;28.85;15.38;;;;;;;-2.95;53.61;96025.97;5067475;28;20032;-74
2024/02/01 04:26:42;;;;;;;27.07;15.77;;;;;;;-2.99;53.94;96030.41;5066100;28;20486;-75
2024/02/01 04:29:09;;;;;;;29.52;15.63;;;;;;;-3.02;54.42;96026.47;5065508;28;20021;-74
2024/02/01 04:31:35;;;;;;;29.23;16.40;;;;;;;-3.04;54.33;96030.56;5047063;28;20025;-75
2024/02/01 04:34:01;;;;;;;32.45;17.23;;;;;;;-2.99;53.93;96035.78;5045102;28;20040;-74
2024/02/01 04:36:26;;;;;;;37.15;19.10;;;;;;;-3.02;54.22;96014.91;5047762;28;20186;-74
2024/02/01 04:38:51;;;;;;;38.92;18.83;;;;;;;-2.98;54.12;96024.72;5046449;28;20029;-75
2024/02/01 04:41:17;;;;;;;31.75;18.88;;;;;;;-3.03;54.20;96016.81;5045852;28;20029;-74
2024/02/01 04:43:43;;;;;;;42.83;21.83;;;;;;;-2.99;54.36;96012.34;5045377;28;20029;-74
2024/02/01 04:46:10;;;;;;;34.05;21.00;;;;;;;-3.03;54.58;96007.97;5045259;28;20036;-73
2024/02/01 04:48:35;;;;;;;37.70;21.42;;;;;;;-3.04;54.29;96009.88;5045570;28;20045;-73
2024/02/01 04:51:00;;;;;;;40.72;22.10;;;;;;;-3.01;54.65;96000.34;5044935;28;20036;-75
2024/02/01 04:53:26;;;;;;;38.08;20.98;;;;;;;-2.97;54.54;96007.47;5046002;28;20021;-76
2024/02/01 04:55:51;;;;;;;37.23;20.70;;;;;;;-3.01;54.77;96006.53;5028409;28;20103;-76
2024/02/01 04:58:20;;;;;;;30.50;19.87;;;;;;;-3.03;54.36;96008.75;5047137;28;20479;-75
2024/02/01 05:00:46;;;;;;;37.55;19.65;;;;;;;-3.04;54.43;96015.25;5046395;28;20488;-75
2024/02/01 05:03:15;;;;;;;38.78;19.17;;;;;;;-3.01;54.29;96019.19;5047009;28;20075;-77
2024/02/01 05:05:45;;;;;;;34.38;18.02;;;;;;;-3.02;54.35;96013.00;5045601;28;20033;-75
2024/02/01 05:08:11;;;;;;;32.60;19.45;;;;;;;-2.98;54.75;96016.66;5064703;28;20136;-75
2024/02/01 05:10:38;;;;;;;39.72;20.75;;;;;;;-2.99;54.36;96017.72;5067223;28;20025;-76
2024/02/01 05:13:04;;;;;;;51.60;25.27;;;;;;;-3.08;55.02;96008.13;5064326;28;20034;-75
2024/02/01 05:15:30;;;;;;;50.47;26.23;;;;;;;-3.09;55.12;96011.94;5059534;28;20029;-74
2024/02/01 05:17:56;;;;;;;55.03;25.80;;;;;;;-3.12;55.24;96013.38;5029845;28;20031;-75
2024/02/01 05:20:21;;;;;;;43.70;23.92;;;;;;;-3.25;55.18;95995.56;5037517;28;20039;-77
2024/02/01 05:22:46;;;;;;;39.65;21.90;;;;;;;-3.12;54.73;96008.00;5064480;28;20025;-74
2024/02/01 05:25:15;;;;;;;34.40;20.50;;;;;;;-3.04;54.60;96017.13;5060123;28;20027;-74
2024/02/01 05:27:43;;;;;;;42.38;18.77;;;;;;;-3.11;55.00;96014.16;5045373;28;20086;-75
2024/02/01 05:30:09;;;;;;;29.25;17.13;;;;;;;-3.19;54.94;96015.00;5027707;28;20060;-75
2024/02/01 05:32:34;;;;;;;32.53;18.02;;;;;;;-3.21;55.15;96008.03;5045346;28;20045;-75
2024/02/01 05:35:00;;;;;;;32.42;17.58;;;;;;;-3.20;55.21;96011.50;5044262;28;20037;-74
2024/02/01 05:37:25;;;;;;;36.50;18.42;;;;;;;-3.16;54.90;96006.25;5050127;28;20486;-74
2024/02/01 05:39:51;;;;;;;36.47;17.27;;;;;;;-3.13;54.93;96003.72;5066263;28;20093;-75
2024/02/01 05:42:17;;;;;;;34.47;18.17;;;;;;;-3.15;55.01;95997.88;5064566;28;20027;-75
2024/02/01 05:44:44;;;;;;;41.13;18.45;;;;;;;-3.11;54.61;96004.19;5048299;28;20111;-76
2024/02/01 05:47:09;;;;;;;36.92;18.15;;;;;;;-3.11;54.69;95998.81;5047813;28;20469;-76
2024/02/01 05:49:35;;;;;;;32.75;18.33;;;;;;;-3.18;55.01;95997.75;5065233;28;20049;-76
2024/02/01 05:52:02;;;;;;;36.83;19.75;;;;;;;-3.13;54.98;96002.94;5063927;28;20040;-75
2024/02/01 05:54:28;;;;;;;37.38;21.92;;;;;;;-3.14;55.24;96009.44;5065264;28;20024;-75
2024/02/01 05:56:54;;;;;;;32.05;19.73;;;;;;;-3.12;55.17;96017.97;5064483;28;20031;-75
2024/02/01 05:59:20;;;;;;;36.60;22.00;;;;;;;-3.11;55.28;96023.00;5064716;28;20032;-75
2024/02/01 06:01:46;;;;;;;42.97;21.83;;;;;;;-3.06;55.27;96024.75;5066135;28;20052;-75
2024/02/01 06:04:13;;;;;;;37.63;22.10;;;;;;;-3.04;55.19;96025.19;5064299;28;20032;-75
2024/02/01 06:06:40;;;;;;;40.10;20.42;;;;;;;-3.06;55.16;96024.75;5066541;28;20521;-75
2024/02/01 06:09:12;;;;;;;36.50;21.40;;;;;;;-3.09;54.97;96023.50;5065300;28;20032;-74
2024/02/01 06:11:38;;;;;;;38.60;20.90;;;;;;;-3.08;55.33;96025.06;5049655;28;20028;-75
2024/02/01 06:14:04;;;;;;;38.28;19.85;;;;;;;-3.04;54.87;96025.19;5072214;28;20032;-75
2024/02/01 06:16:29;;;;;;;42.03;21.40;;;;;;;-3.01;55.10;96024.56;5084989;28;20040;-74
2024/02/01 06:18:54;;;;;;;36.88;20.35;;;;;;;-3.00;54.94;96023.44;5084797;28;20028;-75
2024/02/01 06:21:20;;;;;;;41.43;21.40;;;;;;;-3.00;55.04;96021.53;5057780;28;20025;-76
2024/02/01 06:23:46;;;;;;;36.65;20.83;;;;;;;-3.00;55.20;96016.16;5045050;28;20525;-75
2024/02/01 06:26:26;;;;;;;40.60;20.07;;;;;;;-2.93;55.10;96021.03;5054721;28;20067;-76
2024/02/01 06:28:58;;;;;;;38.53;22.47;;;;;;;-2.91;55.07;96007.28;5045280;28;20064;-75
2024/02/01 06:31:26;;;;;;;33.10;19.63;;;;;;;-2.98;55.04;96007.78;5029447;28;20025;-75
2024/02/01 06:33:53;;;;;;;35.72;20.50;;;;;;;-2.98;55.29;96010.47;5059608;28;20052;-75
2024/02/01 06:36:19;;;;;;;41.17;20.90;;;;;;;-3.00;55.13;96004.63;5058426;28;20024;-75
2024/02/01 06:39:10;;;;;;;44.27;22.83;;;;;;;-2.97;55.36;95998.59;5052915;28;20048;-76
2024/02/01 06:41:47;;;;;;;42.42;22.73;;;;;;;-2.92;55.19;96003.81;5052429;28;20075;-75
2024/02/01 06:44:22;;;;;;;35.20;21.00;;;;;;;-2.92;55.58;96001.09;5053155;28;20020;-74
2024/02/01 06:46:49;;;;;;;40.17;22.77;;;;;;;-2.89;55.06;96000.44;5059545;28;20033;-75
2024/02/01 06:49:28;;;;;;;40.25;22.20;;;;;;;-2.79;55.09;95999.28;5061011;28;20577;-76
2024/02/01 06:52:13;;;;;;;43.87;23.20;;;;;;;-2.79;55.09;95997.38;5048744;28;20044;-76
2024/02/01 06:54:50;;;;;;;40.95;23.75;;;;;;;-2.81;55.18;95988.88;5048024;28;20561;-76
2024/02/01 06:57:18;;;;;;;38.67;24.20;;;;;;;-2.70;55.19;95995.41;5067071;28;20028;-76
2024/02/01 07:00:06;;;;;;;45.65;24.08;;;;;;;-2.63;55.48;95997.63;5051034;28;20029;-75
2024/02/01 07:02:35;;;;;;;41.53;23.35;;;;;;;-2.60;55.50;95988.88;5067955;28;20077;-75
2024/02/01 07:05:21;;;;;;;41.85;24.83;;;;;;;-2.54;55.07;95973.31;5051054;28;20036;-76
2024/02/01 07:08:02;;;;;;;45.05;24.83;;;;;;;-2.47;55.08;95979.75;5049504;28;20083;-75
2024/02/01 07:10:43;;;;;;;32.88;22.88;;;;;;;-2.32;54.73;95986.47;5048742;28;20165;-75
2024/02/01 07:16:13;;;;;;;37.30;23.98;;;;;;;-2.14;54.44;95985.22;5027353;28;20051;-75
2024/02/01 07:18:43;;;;;;;39.28;22.55;;;;;;;-2.07;54.32;95979.28;5032286;28;20053;-74
2024/02/01 07:21:29;;;;;;;39.33;24.10;;;;;;;-1.93;53.67;95974.41;5031424;28;20368;-74
2024/02/01 07:24:07;;;;;;;38.83;24.08;;;;;;;-1.89;53.30;95966.47;5048629;28;20085;-73
2024/02/01 07:26:43;;;;;;;48.33;27.00;;;;;;;-1.66;53.26;95983.06;5047065;28;20404;-73
2024/02/01 07:59:38;;;;;;;;;;;;;;;0.50;47.89;95947.50;5054207;28;20064;-77
2024/02/01 08:02:23;;;;;;;66.93;31.60;;;;;;;0.74;47.18;95935.72;5047360;28;19927;-77
2024/02/01 08:07:47;;;;;;;60.03;32.53;;;;;;;1.66;45.18;95944.41;5062778;28;20050;-78
2024/02/01 08:10:12;;;;;;;60.55;32.53;;;;;;;2.17;44.10;95944.28;5067009;28;20055;-76
2024/02/01 08:12:38;;;;;;;52.78;30.40;;;;;;;2.70;43.00;95939.09;5066734;28;20060;-77
2024/02/01 08:15:03;;;;;;;56.42;30.85;;;;;;;3.35;41.56;95932.75;5050694;28;20032;-77
2024/02/01 08:17:31;;;;;;;57.55;29.67;;;;;;;4.16;40.28;95935.00;5060261;28;20450;-78
2024/02/01 08:19:56;;;;;;;50.92;29.48;;;;;;;5.38;37.74;95926.78;5056543;28;20119;-86
2024/02/01 08:22:21;;;;;;;48.47;29.23;;;;;;;6.99;34.45;95936.44;5034077;28;20112;-85
2024/02/01 08:24:54;;;;;;;46.90;28.77;;;;;;;8.25;32.33;95935.84;5030636;28;20057;-84
2024/02/01 08:27:19;;;;;;;49.72;30.27;;;;;;;9.47;30.15;95930.44;5046638;28;20053;-83
2024/02/01 08:29:45;;;;;;;43.92;28.98;;;;;;;10.57;28.17;95936.75;5036248;28;20064;-82
2024/02/01 08:32:11;;;;;;;45.90;29.88;;;;;;;11.52;26.81;95937.72;5043588;28;20036;-82
2024/02/01 08:34:38;;;;;;;43.42;28.13;;;;;;;12.21;25.48;95939.66;5057188;28;20021;-82
2024/02/01 08:37:09;;;;;;;48.55;28.52;;;;;;;13.13;24.05;95922.38;5046657;28;20033;-81
2024/02/01 08:39:34;;;;;;;44.47;28.85;;;;;;;14.02;23.02;95941.53;5062857;28;20028;-77
2024/02/01 08:42:03;;;;;;;42.97;30.65;;;;;;;14.60;22.44;95931.25;5053721;28;20074;-86
2024/02/01 08:44:28;;;;;;;44.22;29.52;;;;;;;15.30;21.46;95945.38;5046868;28;20151;-85
2024/02/01 08:46:54;;;;;;;44.97;30.27;;;;;;;16.05;20.26;95940.19;5030416;28;20431;-84
2024/02/01 08:49:20;;;;;;;42.92;28.75;;;;;;;16.57;20.22;95936.75;5045080;28;20123;-88
2024/02/01 08:51:45;;;;;;;43.55;27.92;;;;;;;17.28;19.30;95932.56;5051849;28;20154;-85
2024/02/01 08:54:10;;;;;;;32.40;24.73;;;;;;;18.13;18.40;95928.34;5029281;28;20452;-77
2024/02/01 08:56:36;;;;;;;35.53;24.35;;;;;;;18.64;17.40;95922.09;5046876;28;20017;-80
2024/02/01 08:59:03;;;;;;;36.33;24.70;;;;;;;19.19;17.06;95922.78;5040327;28;20418;-80
2024/02/01 09:01:30;;;;;;;34.20;24.30;;;;;;;19.89;16.22;95923.41;5040378;28;20372;-80
2024/02/01 09:03:56;;;;;;;36.17;23.25;;;;;;;20.31;16.32;95928.09;5034985;28;20066;-78
2024/02/01 09:06:22;;;;;;;29.67;22.88;;;;;;;21.18;15.67;95925.88;5032205;28;20495;-82
2024/02/01 09:08:47;;;;;;;40.67;23.33;;;;;;;21.49;15.12;95910.63;5066201;28;20028;-81
2024/02/01 09:11:14;;;;;;;36.42;25.13;;;;;;;21.54;14.63;95909.94;5064310;28;20039;-78
2024/02/01 09:13:44;;;;;;;34.25;25.80;;;;;;;22.21;14.36;95913.69;5053437;28;20039;-79
2024/02/01 09:16:31;;;;;;;35.05;25.80;;;;;;;22.74;14.05;95909.69;5065637;28;20021;-78
2024/02/01 09:19:02;;;;;;;38.20;24.55;;;;;;;23.13;13.53;95906.53;5041379;28;20032;-88
2024/02/01 09:21:29;;;;;;;36.30;25.45;;;;;;;23.57;13.54;95902.53;5046592;28;20483;-85
2024/02/01 09:23:58;;;;;;;38.10;26.10;;;;;;;23.72;13.18;95894.72;5051719;28;20111;-90
2024/02/01 09:26:23;;;;;;;39.35;26.23;;;;;;;23.89;13.02;95894.06;5030382;28;20133;-83
2024/02/01 09:28:56;;;;;;;38.05;26.52;;;;;;;24.52;12.90;95891.78;5029905;28;20063;-90
2024/02/01 09:31:23;;;;;;;35.58;26.83;;;;;;;25.26;12.09;95892.69;5049177;28;20025;-88
2024/02/01 09:33:50;;;;;;;38.30;29.17;;;;;;;25.30;12.16;95882.72;5030792;28;20029;-90
2024/02/01 09:36:15;;;;;;;39.70;29.63;;;;;;;25.65;11.70;95879.38;5047663;28;20279;-81
2024/02/01 09:38:41;;;;;;;37.85;29.83;;;;;;;26.09;11.74;95876.94;5062489;28;20107;-86
2024/02/01 09:41:26;;;;;;;40.28;28.63;;;;;;;26.41;11.24;95869.69;5048395;28;20456;-83
2024/02/01 09:43:52;;;;;;;36.53;28.25;;;;;;;26.55;11.26;95861.41;5057753;28;20025;-85
2024/02/01 09:46:20;;;;;;;38.28;28.15;;;;;;;27.00;11.18;95859.06;5029181;28;20115;-87
2024/02/01 09:48:47;;;;;;;37.13;25.67;;;;;;;26.99;10.88;95866.00;5029048;28;20106;-86
2024/02/01 09:51:18;;;;;;;39.55;27.50;;;;;;;27.25;10.88;95859.94;5029539;28;20036;-84
2024/02/01 09:53:51;;;;;;;36.22;26.75;;;;;;;27.20;10.71;95847.38;5046621;28;20075;-86
2024/02/01 09:56:25;;;;;;;35.15;25.52;;;;;;;27.72;10.25;95848.47;5060993;28;20036;-83
2024/02/01 09:59:02;;;;;;;37.75;24.85;;;;;;;28.33;10.33;95835.72;5066497;28;20044;-86
2024/02/01 10:01:29;;;;;;;36.25;24.48;;;;;;;28.62;9.76;95831.22;5048670;28;20453;-81
2024/02/01 10:03:55;;;;;;;31.35;23.40;;;;;;;28.91;9.81;95834.38;5049187;28;20029;-83
2024/02/01 10:06:20;;;;;;;35.95;23.00;;;;;;;29.26;9.74;95827.66;5064212;28;20070;-82
2024/02/01 10:08:51;;;;;;;33.83;23.05;;;;;;;29.74;9.23;95831.47;5065396;28;20410;-78
2024/02/01 10:11:19;;;;;;;35.70;24.10;;;;;;;29.81;9.02;95833.66;5064451;28;20111;-81
2024/02/01 10:13:45;;;;;;;36.50;22.98;;;;;;;30.18;8.83;95810.00;5065149;28;20029;-81
2024/02/01 10:16:13;;;;;;;30.33;22.02;;;;;;;30.48;8.93;95814.53;5050169;28;20025;-82
2024/02/01 10:18:40;;;;;;;33.15;21.13;;;;;;;30.83;8.82;95801.88;5056051;28;20505;-83
2024/02/01 10:21:21;;;;;;;28.77;21.45;;;;;;;31.04;8.38;95799.06;5052220;28;20054;-85
2024/02/01 10:23:47;;;;;;;30.90;21.37;;;;;;;31.86;8.05;95797.47;5057620;28;20040;-79
2024/02/01 10:26:23;;;;;;;29.55;20.60;;;;;;;32.29;7.87;95789.53;5054653;28;20033;-84
2024/02/01 10:28:48;;;;;;;26.95;21.45;;;;;;;32.43;7.63;95779.56;5052541;28;20432;-78
2024/02/01 10:31:14;;;;;;;31.30;20.67;;;;;;;31.95;8.16;95779.91;5049548;28;20066;-77
2024/02/01 10:33:42;;;;;;;25.80;20.10;;;;;;;32.14;7.70;95770.34;5068022;28;20032;-76
2024/02/01 10:36:08;;;;;;;32.17;20.95;;;;;;;32.12;8.06;95765.22;5044709;28;20115;-76
2024/02/01 10:38:34;;;;;;;31.05;20.08;;;;;;;32.63;7.78;95755.16;5048374;28;20456;-76
2024/02/01 10:41:15;;;;;;;25.25;19.05;;;;;;;32.90;7.49;95753.53;5047670;28;20056;-77
2024/02/01 10:43:45;;;;;;;27.27;18.75;;;;;;;33.20;7.42;95749.16;5049763;28;20040;-77
2024/02/01 10:46:30;;;;;;;24.90;17.95;;;;;;;33.25;7.23;95742.53;5031018;28;20057;-79
2024/02/01 10:49:21;;;;;;;25.95;18.15;;;;;;;33.54;7.14;95743.09;5039246;28;20045;-77
2024/02/01 10:51:51;;;;;;;28.70;17.55;;;;;;;33.96;6.63;95736.97;5054528;28;20033;-80
2024/02/01 10:54:18;;;;;;;23.42;16.38;;;;;;;34.15;6.72;95725.84;5063887;28;20032;-78
2024/02/01 10:56:44;;;;;;;25.25;16.67;;;;;;;34.26;6.55;95721.81;5048483;28;20025;-77
2024/02/01 10:59:10;;;;;;;24.92;16.98;;;;;;;34.69;6.28;95719.88;5048267;28;20453;-76
2024/02/01 11:01:37;;;;;;;27.75;17.10;;;;;;;34.91;6.48;95715.34;5057352;28;20024;-79
2024/02/01 11:04:05;;;;;;;23.05;15.65;;;;;;;35.13;6.37;95715.19;5067439;28;20119;-80
2024/02/01 11:06:31;;;;;;;18.85;14.73;;;;;;;35.58;6.26;95706.81;5063326;28;20455;-78
2024/02/01 11:09:01;;;;;;;22.27;14.48;;;;;;;36.09;6.29;95700.34;5051547;28;20025;-79
2024/02/01 11:11:35;;;;;;;25.05;13.90;;;;;;;36.80;5.43;95687.38;5047574;28;20138;-79
2024/02/01 11:14:14;;;;;;;20.98;13.80;;;;;;;37.13;5.80;95687.84;5035687;28;20072;-79
2024/02/01 11:16:39;;;;;;;24.65;12.85;;;;;;;37.66;5.15;95684.03;5046945;28;20043;-75
2024/02/01 11:19:17;;;;;;;16.27;12.15;;;;;;;38.09;5.05;95692.22;5063597;28;20032;-82
2024/02/01 11:21:50;;;;;;;16.35;10.98;;;;;;;38.76;4.96;95680.63;5046157;28;20419;-84
2024/02/01 11:24:27;;;;;;;19.10;11.45;;;;;;;39.67;4.46;95671.09;5046887;28;20025;-83
2024/02/01 11:27:09;;;;;;;15.82;10.82;;;;;;;40.53;4.30;95665.97;5061962;28;20028;-80
2024/02/01 11:29:38;;;;;;;15.32;11.05;;;;;;;40.66;4.39;95663.84;5052462;28;20108;-81
2024/02/01 11:32:05;;;;;;;14.13;10.00;;;;;;;41.16;3.70;95656.88;5067532;28;20035;-80
2024/02/01 11:34:35;;;;;;;9.90;8.40;;;;;;;41.21;3.61;95659.38;5066868;28;20411;-81
2024/02/01 11:37:07;;;;;;;14.20;9.18;;;;;;;41.09;3.90;95658.66;5050594;28;20052;-81
2024/02/01 11:39:34;;;;;;;13.25;9.30;;;;;;;41.59;3.55;95654.47;5047790;28;20027;-80
2024/02/01 11:41:59;;;;;;;14.75;10.13;;;;;;;41.31;3.41;95651.34;5046439;28;20090;-80
2024/02/01 11:44:27;;;;;;;13.30;9.70;;;;;;;41.09;3.51;95652.88;5048828;28;20041;-83
2024/02/01 11:46:53;;;;;;;12.20;8.68;;;;;;;40.22;3.77;95645.22;5046846;28;20107;-83
2024/02/01 11:49:22;;;;;;;11.57;8.00;;;;;;;38.68;4.29;95641.94;5048051;28;20427;-82
2024/02/01 11:52:13;;;;;;;12.05;8.40;;;;;;;35.87;5.39;95636.31;5030380;28;20110;-79
2024/02/01 11:55:07;;;;;;;8.77;7.07;;;;;;;33.58;6.02;95623.00;5046701;28;20130;-80
2024/02/01 11:57:33;;;;;;;8.30;6.35;;;;;;;32.60;6.03;95625.38;5047208;28;20040;-82
2024/02/01 11:59:58;;;;;;;8.13;5.07;;;;;;;32.46;5.74;95619.88;5029699;28;20021;-81